sensor_id;sensor_type;location;lat;lon;timestamp;P1;durP1;ratioP1;P2;durP2;ratioP2
6029;SDS011;3043;42.682;23.376;2023-04-01T00:00:04;25.43;;;13.77;;
6029;SDS011;3043;42.682;23.376;2023-04-01T00:02:30;15.50;;;10.47;;
6029;SDS011;3043;42.682;23.376;2023-04-01T00:04:56;17.90;;;10.40;;
6029;SDS011;3043;42.682;23.376;2023-04-01T00:07:21;16.57;;;9.93;;
6029;SDS011;3043;42.682;23.376;2023-04-01T00:09:47;16.83;;;9.70;;
6029;SDS011;3043;42.682;23.376;2023-04-01T00:12:12;16.00;;;10.33;;
6029;SDS011;3043;42.682;23.376;2023-04-01T00:14:38;16.57;;;10.40;;
6029;SDS011;3043;42.682;23.376;2023-04-01T00:17:04;19.17;;;10.43;;
6029;SDS011;3043;42.682;23.376;2023-04-01T00:19:30;20.97;;;12.13;;
6029;SDS011;3043;42.682;23.376;2023-04-01T00:21:57;23.33;;;12.10;;
6029;SDS011;3043;42.682;23.376;2023-04-01T00:24:23;20.57;;;11.00;;
6029;SDS011;3043;42.682;23.376;2023-04-01T00:26:48;21.67;;;12.87;;
6029;SDS011;3043;42.682;23.376;2023-04-01T00:29:14;19.20;;;11.43;;
6029;SDS011;3043;42.682;23.376;2023-04-01T00:31:39;13.53;;;10.63;;
6029;SDS011;3043;42.682;23.376;2023-04-01T00:34:04;16.00;;;10.27;;
6029;SDS011;3043;42.682;23.376;2023-04-01T00:36:30;16.33;;;10.47;;
6029;SDS011;3043;42.682;23.376;2023-04-01T00:38:57;19.00;;;11.07;;
6029;SDS011;3043;42.682;23.376;2023-04-01T00:41:23;15.73;;;10.10;;
6029;SDS011;3043;42.682;23.376;2023-04-01T00:43:51;13.77;;;9.20;;
6029;SDS011;3043;42.682;23.376;2023-04-01T00:46:17;17.60;;;10.57;;
6029;SDS011;3043;42.682;23.376;2023-04-01T00:48:51;19.33;;;9.50;;
6029;SDS011;3043;42.682;23.376;2023-04-01T00:51:21;17.13;;;9.47;;
6029;SDS011;3043;42.682;23.376;2023-04-01T00:53:53;17.63;;;10.30;;
6029;SDS011;3043;42.682;23.376;2023-04-01T00:56:22;14.20;;;9.23;;
6029;SDS011;3043;42.682;23.376;2023-04-01T00:58:53;18.50;;;9.43;;
6029;SDS011;3043;42.682;23.376;2023-04-01T01:01:23;18.50;;;9.87;;
6029;SDS011;3043;42.682;23.376;2023-04-01T01:03:50;16.90;;;9.47;;
6029;SDS011;3043;42.682;23.376;2023-04-01T01:12:21;18.03;;;10.17;;
6029;SDS011;3043;42.682;23.376;2023-04-01T01:14:36;15.43;;;10.33;;
6029;SDS011;3043;42.682;23.376;2023-04-01T01:25:29;17.30;;;9.50;;
6029;SDS011;3043;42.682;23.376;2023-04-01T01:28:49;14.73;;;9.23;;
6029;SDS011;3043;42.682;23.376;2023-04-01T01:36:43;12.10;;;6.90;;
6029;SDS011;3043;42.682;23.376;2023-04-01T01:39:15;10.63;;;5.93;;
6029;SDS011;3043;42.682;23.376;2023-04-01T01:41:42;18.43;;;7.20;;
6029;SDS011;3043;42.682;23.376;2023-04-01T01:44:12;12.07;;;6.30;;
6029;SDS011;3043;42.682;23.376;2023-04-01T01:46:39;11.30;;;6.20;;
6029;SDS011;3043;42.682;23.376;2023-04-01T01:49:07;12.20;;;6.63;;
6029;SDS011;3043;42.682;23.376;2023-04-01T01:51:36;13.73;;;6.80;;
6029;SDS011;3043;42.682;23.376;2023-04-01T01:54:02;11.23;;;6.20;;
6029;SDS011;3043;42.682;23.376;2023-04-01T01:56:27;13.03;;;8.53;;
6029;SDS011;3043;42.682;23.376;2023-04-01T01:58:57;9.47;;;5.53;;
6029;SDS011;3043;42.682;23.376;2023-04-01T02:01:27;13.87;;;5.60;;
6029;SDS011;3043;42.682;23.376;2023-04-01T02:03:55;11.47;;;5.03;;
6029;SDS011;3043;42.682;23.376;2023-04-01T02:06:23;9.87;;;4.73;;
6029;SDS011;3043;42.682;23.376;2023-04-01T02:08:55;12.83;;;5.97;;
6029;SDS011;3043;42.682;23.376;2023-04-01T02:11:30;11.07;;;6.00;;
6029;SDS011;3043;42.682;23.376;2023-04-01T02:14:10;12.17;;;5.80;;
6029;SDS011;3043;42.682;23.376;2023-04-01T02:16:43;15.77;;;6.20;;
6029;SDS011;3043;42.682;23.376;2023-04-01T02:19:11;10.70;;;5.60;;
6029;SDS011;3043;42.682;23.376;2023-04-01T02:21:38;8.27;;;4.60;;
6029;SDS011;3043;42.682;23.376;2023-04-01T02:24:07;9.27;;;4.73;;
6029;SDS011;3043;42.682;23.376;2023-04-01T02:26:35;10.67;;;4.90;;
6029;SDS011;3043;42.682;23.376;2023-04-01T02:29:01;8.33;;;4.80;;
6029;SDS011;3043;42.682;23.376;2023-04-01T02:31:29;8.23;;;4.70;;
6029;SDS011;3043;42.682;23.376;2023-04-01T02:33:55;10.70;;;5.67;;
6029;SDS011;3043;42.682;23.376;2023-04-01T02:36:21;13.47;;;6.40;;
6029;SDS011;3043;42.682;23.376;2023-04-01T02:38:47;12.03;;;7.13;;
6029;SDS011;3043;42.682;23.376;2023-04-01T02:41:14;17.27;;;7.90;;
6029;SDS011;3043;42.682;23.376;2023-04-01T02:43:40;13.90;;;8.20;;
6029;SDS011;3043;42.682;23.376;2023-04-01T02:46:05;16.63;;;9.30;;
6029;SDS011;3043;42.682;23.376;2023-04-01T02:48:31;14.47;;;9.90;;
6029;SDS011;3043;42.682;23.376;2023-04-01T02:50:56;15.90;;;9.00;;
6029;SDS011;3043;42.682;23.376;2023-04-01T02:53:22;18.17;;;7.93;;
6029;SDS011;3043;42.682;23.376;2023-04-01T02:55:47;13.87;;;8.33;;
6029;SDS011;3043;42.682;23.376;2023-04-01T02:58:15;14.60;;;8.07;;
6029;SDS011;3043;42.682;23.376;2023-04-01T03:00:41;15.67;;;8.67;;
6029;SDS011;3043;42.682;23.376;2023-04-01T03:03:06;17.00;;;9.83;;
6029;SDS011;3043;42.682;23.376;2023-04-01T03:05:32;20.20;;;9.60;;
6029;SDS011;3043;42.682;23.376;2023-04-01T03:07:58;17.50;;;8.90;;
6029;SDS011;3043;42.682;23.376;2023-04-01T03:10:23;20.43;;;10.13;;
6029;SDS011;3043;42.682;23.376;2023-04-01T03:12:49;16.17;;;8.87;;
6029;SDS011;3043;42.682;23.376;2023-04-01T03:15:14;17.77;;;8.63;;
6029;SDS011;3043;42.682;23.376;2023-04-01T03:17:40;13.83;;;7.97;;
6029;SDS011;3043;42.682;23.376;2023-04-01T03:20:07;14.13;;;8.57;;
6029;SDS011;3043;42.682;23.376;2023-04-01T03:22:35;18.73;;;8.93;;
6029;SDS011;3043;42.682;23.376;2023-04-01T03:25:01;15.20;;;8.73;;
6029;SDS011;3043;42.682;23.376;2023-04-01T03:27:27;14.97;;;8.47;;
6029;SDS011;3043;42.682;23.376;2023-04-01T03:29:53;15.47;;;8.00;;
6029;SDS011;3043;42.682;23.376;2023-04-01T03:32:18;16.20;;;8.20;;
6029;SDS011;3043;42.682;23.376;2023-04-01T03:34:44;15.40;;;8.83;;
6029;SDS011;3043;42.682;23.376;2023-04-01T03:37:09;14.00;;;8.93;;
6029;SDS011;3043;42.682;23.376;2023-04-01T03:39:35;13.93;;;9.33;;
6029;SDS011;3043;42.682;23.376;2023-04-01T03:42:01;17.53;;;9.60;;
6029;SDS011;3043;42.682;23.376;2023-04-01T03:44:29;17.83;;;10.13;;
6029;SDS011;3043;42.682;23.376;2023-04-01T03:46:55;18.63;;;11.23;;
6029;SDS011;3043;42.682;23.376;2023-04-01T03:49:21;18.67;;;11.00;;
6029;SDS011;3043;42.682;23.376;2023-04-01T03:51:46;20.00;;;10.77;;
6029;SDS011;3043;42.682;23.376;2023-04-01T03:54:12;18.30;;;10.67;;
6029;SDS011;3043;42.682;23.376;2023-04-01T03:56:37;18.30;;;10.93;;
6029;SDS011;3043;42.682;23.376;2023-04-01T03:59:04;19.53;;;10.93;;
6029;SDS011;3043;42.682;23.376;2023-04-01T04:01:31;16.73;;;9.90;;
6029;SDS011;3043;42.682;23.376;2023-04-01T04:03:56;13.63;;;8.77;;
6029;SDS011;3043;42.682;23.376;2023-04-01T04:06:23;15.33;;;9.70;;
6029;SDS011;3043;42.682;23.376;2023-04-01T04:08:49;16.10;;;9.23;;
6029;SDS011;3043;42.682;23.376;2023-04-01T04:11:15;17.90;;;9.53;;
6029;SDS011;3043;42.682;23.376;2023-04-01T04:13:41;18.57;;;10.13;;
6029;SDS011;3043;42.682;23.376;2023-04-01T04:16:07;15.17;;;9.23;;
6029;SDS011;3043;42.682;23.376;2023-04-01T04:18:34;14.73;;;9.00;;
6029;SDS011;3043;42.682;23.376;2023-04-01T04:21:00;14.43;;;8.97;;
6029;SDS011;3043;42.682;23.376;2023-04-01T04:23:25;13.43;;;9.53;;
6029;SDS011;3043;42.682;23.376;2023-04-01T04:28:25;13.57;;;8.50;;
6029;SDS011;3043;42.682;23.376;2023-04-01T04:30:52;15.63;;;8.33;;
6029;SDS011;3043;42.682;23.376;2023-04-01T04:33:18;13.93;;;8.43;;
6029;SDS011;3043;42.682;23.376;2023-04-01T04:35:44;16.20;;;9.33;;
6029;SDS011;3043;42.682;23.376;2023-04-01T04:38:09;13.67;;;8.77;;
6029;SDS011;3043;42.682;23.376;2023-04-01T04:40:38;15.23;;;9.63;;
6029;SDS011;3043;42.682;23.376;2023-04-01T04:43:04;18.37;;;11.17;;
6029;SDS011;3043;42.682;23.376;2023-04-01T04:45:30;19.33;;;11.60;;
6029;SDS011;3043;42.682;23.376;2023-04-01T04:47:55;19.93;;;11.33;;
6029;SDS011;3043;42.682;23.376;2023-04-01T04:50:21;15.57;;;9.50;;
6029;SDS011;3043;42.682;23.376;2023-04-01T04:52:47;15.57;;;9.23;;
6029;SDS011;3043;42.682;23.376;2023-04-01T04:55:12;11.03;;;7.37;;
6029;SDS011;3043;42.682;23.376;2023-04-01T04:57:38;15.87;;;8.33;;
6029;SDS011;3043;42.682;23.376;2023-04-01T05:00:03;12.83;;;6.83;;
6029;SDS011;3043;42.682;23.376;2023-04-01T05:02:29;10.10;;;5.10;;
6029;SDS011;3043;42.682;23.376;2023-04-01T05:04:55;10.03;;;5.93;;
6029;SDS011;3043;42.682;23.376;2023-04-01T05:07:21;17.10;;;9.37;;
6029;SDS011;3043;42.682;23.376;2023-04-01T05:09:46;14.30;;;7.90;;
6029;SDS011;3043;42.682;23.376;2023-04-01T05:12:12;15.93;;;8.60;;
6029;SDS011;3043;42.682;23.376;2023-04-01T05:14:38;15.13;;;7.80;;
6029;SDS011;3043;42.682;23.376;2023-04-01T05:17:03;12.97;;;7.87;;
6029;SDS011;3043;42.682;23.376;2023-04-01T05:19:29;17.23;;;8.40;;
6029;SDS011;3043;42.682;23.376;2023-04-01T05:21:55;26.23;;;15.73;;
6029;SDS011;3043;42.682;23.376;2023-04-01T05:24:20;14.77;;;7.43;;
6029;SDS011;3043;42.682;23.376;2023-04-01T05:26:45;12.83;;;6.37;;
6029;SDS011;3043;42.682;23.376;2023-04-01T05:29:11;13.37;;;6.73;;
6029;SDS011;3043;42.682;23.376;2023-04-01T05:31:36;18.03;;;7.60;;
6029;SDS011;3043;42.682;23.376;2023-04-01T05:34:02;18.17;;;8.57;;
6029;SDS011;3043;42.682;23.376;2023-04-01T05:36:27;13.97;;;7.47;;
6029;SDS011;3043;42.682;23.376;2023-04-01T05:38:54;14.47;;;7.47;;
6029;SDS011;3043;42.682;23.376;2023-04-01T05:41:21;16.73;;;7.80;;
6029;SDS011;3043;42.682;23.376;2023-04-01T05:43:46;12.60;;;6.93;;
6029;SDS011;3043;42.682;23.376;2023-04-01T05:46:12;11.83;;;6.33;;
6029;SDS011;3043;42.682;23.376;2023-04-01T05:48:37;11.13;;;6.30;;
6029;SDS011;3043;42.682;23.376;2023-04-01T05:51:03;14.27;;;7.27;;
6029;SDS011;3043;42.682;23.376;2023-04-01T05:53:29;14.43;;;8.10;;
6029;SDS011;3043;42.682;23.376;2023-04-01T05:55:55;12.33;;;7.13;;
6029;SDS011;3043;42.682;23.376;2023-04-01T05:58:21;11.17;;;6.80;;
6029;SDS011;3043;42.682;23.376;2023-04-01T06:00:46;17.60;;;11.73;;
6029;SDS011;3043;42.682;23.376;2023-04-01T06:03:12;20.47;;;11.23;;
6029;SDS011;3043;42.682;23.376;2023-04-01T06:05:38;32.17;;;25.10;;
6029;SDS011;3043;42.682;23.376;2023-04-01T06:08:16;20.93;;;14.50;;
6029;SDS011;3043;42.682;23.376;2023-04-01T06:16:18;22.03;;;14.97;;
6029;SDS011;3043;42.682;23.376;2023-04-01T06:30:33;13.00;;;7.40;;
6029;SDS011;3043;42.682;23.376;2023-04-01T06:38:27;13.73;;;7.30;;
6029;SDS011;3043;42.682;23.376;2023-04-01T06:43:31;11.67;;;7.43;;
6029;SDS011;3043;42.682;23.376;2023-04-01T06:54:07;13.17;;;7.27;;
6029;SDS011;3043;42.682;23.376;2023-04-01T06:56:38;11.03;;;6.37;;
6029;SDS011;3043;42.682;23.376;2023-04-01T07:01:38;12.40;;;6.37;;
6029;SDS011;3043;42.682;23.376;2023-04-01T07:07:01;14.00;;;7.87;;
6029;SDS011;3043;42.682;23.376;2023-04-01T07:09:32;11.93;;;7.17;;
6029;SDS011;3043;42.682;23.376;2023-04-01T07:12:06;20.60;;;7.10;;
6029;SDS011;3043;42.682;23.376;2023-04-01T07:14:40;14.30;;;6.47;;
6029;SDS011;3043;42.682;23.376;2023-04-01T07:17:17;11.50;;;6.60;;
6029;SDS011;3043;42.682;23.376;2023-04-01T07:19:59;12.57;;;8.77;;
6029;SDS011;3043;42.682;23.376;2023-04-01T07:22:43;17.13;;;8.97;;
6029;SDS011;3043;42.682;23.376;2023-04-01T07:28:13;17.00;;;9.23;;
6029;SDS011;3043;42.682;23.376;2023-04-01T07:33:22;24.30;;;14.80;;
6029;SDS011;3043;42.682;23.376;2023-04-01T07:36:05;17.77;;;8.73;;
6029;SDS011;3043;42.682;23.376;2023-04-01T07:38:39;13.40;;;7.97;;
6029;SDS011;3043;42.682;23.376;2023-04-01T07:49:57;12.37;;;5.57;;
6029;SDS011;3043;42.682;23.376;2023-04-01T07:52:39;14.50;;;5.73;;
6029;SDS011;3043;42.682;23.376;2023-04-01T07:55:22;13.00;;;5.27;;
6029;SDS011;3043;42.682;23.376;2023-04-01T08:17:26;14.60;;;7.70;;
6029;SDS011;3043;42.682;23.376;2023-04-01T08:23:07;12.30;;;6.27;;
6029;SDS011;3043;42.682;23.376;2023-04-01T08:25:50;9.93;;;5.20;;
6029;SDS011;3043;42.682;23.376;2023-04-01T08:28:39;11.00;;;6.33;;
6029;SDS011;3043;42.682;23.376;2023-04-01T08:31:14;12.00;;;6.53;;
6029;SDS011;3043;42.682;23.376;2023-04-01T08:33:47;11.23;;;5.50;;
6029;SDS011;3043;42.682;23.376;2023-04-01T08:36:22;9.80;;;5.30;;
6029;SDS011;3043;42.682;23.376;2023-04-01T08:39:02;12.47;;;5.47;;
6029;SDS011;3043;42.682;23.376;2023-04-01T08:44:18;12.00;;;4.90;;
6029;SDS011;3043;42.682;23.376;2023-04-01T08:54:37;12.40;;;5.57;;
6029;SDS011;3043;42.682;23.376;2023-04-01T09:00:54;8.70;;;4.73;;
6029;SDS011;3043;42.682;23.376;2023-04-01T09:09:02;12.23;;;6.43;;
6029;SDS011;3043;42.682;23.376;2023-04-01T09:23:33;7.90;;;4.20;;
6029;SDS011;3043;42.682;23.376;2023-04-01T09:37:34;8.37;;;3.90;;
6029;SDS011;3043;42.682;23.376;2023-04-01T09:40:17;9.70;;;3.80;;
6029;SDS011;3043;42.682;23.376;2023-04-01T09:43:01;8.20;;;3.63;;
6029;SDS011;3043;42.682;23.376;2023-04-01T10:16:45;9.37;;;3.80;;
6029;SDS011;3043;42.682;23.376;2023-04-01T10:19:32;7.60;;;3.73;;
6029;SDS011;3043;42.682;23.376;2023-04-01T10:27:43;9.77;;;4.50;;
6029;SDS011;3043;42.682;23.376;2023-04-01T10:30:34;14.10;;;4.13;;
6029;SDS011;3043;42.682;23.376;2023-04-01T10:36:25;7.10;;;3.27;;
6029;SDS011;3043;42.682;23.376;2023-04-01T11:01:07;7.63;;;3.77;;
6029;SDS011;3043;42.682;23.376;2023-04-01T11:28:28;10.07;;;4.07;;
6029;SDS011;3043;42.682;23.376;2023-04-01T11:42:49;8.80;;;3.10;;
6029;SDS011;3043;42.682;23.376;2023-04-01T11:45:22;8.30;;;2.80;;
6029;SDS011;3043;42.682;23.376;2023-04-01T11:48:11;7.00;;;2.73;;
6029;SDS011;3043;42.682;23.376;2023-04-01T11:56:34;8.80;;;3.73;;
6029;SDS011;3043;42.682;23.376;2023-04-01T11:59:37;7.57;;;3.70;;
6029;SDS011;3043;42.682;23.376;2023-04-01T12:04:51;13.97;;;4.57;;
6029;SDS011;3043;42.682;23.376;2023-04-01T12:18:33;12.03;;;5.47;;
6029;SDS011;3043;42.682;23.376;2023-04-01T12:27:26;11.60;;;5.50;;
6029;SDS011;3043;42.682;23.376;2023-04-01T12:38:51;11.80;;;5.77;;
6029;SDS011;3043;42.682;23.376;2023-04-01T12:55:40;7.70;;;4.10;;
6029;SDS011;3043;42.682;23.376;2023-04-01T13:01:33;9.23;;;4.63;;
6029;SDS011;3043;42.682;23.376;2023-04-01T13:06:36;10.60;;;5.03;;
6029;SDS011;3043;42.682;23.376;2023-04-01T13:11:47;9.63;;;5.27;;
6029;SDS011;3043;42.682;23.376;2023-04-01T13:20:03;8.53;;;4.63;;
6029;SDS011;3043;42.682;23.376;2023-04-01T13:22:50;9.07;;;4.73;;
6029;SDS011;3043;42.682;23.376;2023-04-01T13:28:18;11.20;;;4.80;;
6029;SDS011;3043;42.682;23.376;2023-04-01T13:30:50;10.23;;;5.83;;
6029;SDS011;3043;42.682;23.376;2023-04-01T13:38:48;27.63;;;18.07;;
6029;SDS011;3043;42.682;23.376;2023-04-01T13:44:28;22.90;;;12.40;;
6029;SDS011;3043;42.682;23.376;2023-04-01T14:17:46;8.13;;;4.50;;
6029;SDS011;3043;42.682;23.376;2023-04-01T14:33:56;11.60;;;6.33;;
6029;SDS011;3043;42.682;23.376;2023-04-01T14:43:03;8.30;;;4.33;;
6029;SDS011;3043;42.682;23.376;2023-04-01T14:48:34;8.13;;;3.70;;
6029;SDS011;3043;42.682;23.376;2023-04-01T14:54:03;7.47;;;3.33;;
6029;SDS011;3043;42.682;23.376;2023-04-01T14:56:34;6.97;;;3.10;;
6029;SDS011;3043;42.682;23.376;2023-04-01T14:59:01;5.20;;;2.70;;
6029;SDS011;3043;42.682;23.376;2023-04-01T15:01:38;6.17;;;3.10;;
6029;SDS011;3043;42.682;23.376;2023-04-01T15:06:54;8.33;;;3.80;;
6029;SDS011;3043;42.682;23.376;2023-04-01T15:21:01;7.90;;;3.33;;
6029;SDS011;3043;42.682;23.376;2023-04-01T15:26:21;7.33;;;3.30;;
6029;SDS011;3043;42.682;23.376;2023-04-01T15:37:16;9.27;;;4.00;;
6029;SDS011;3043;42.682;23.376;2023-04-01T15:45:31;7.80;;;3.60;;
6029;SDS011;3043;42.682;23.376;2023-04-01T15:53:20;8.43;;;4.87;;
6029;SDS011;3043;42.682;23.376;2023-04-01T16:07:24;6.30;;;3.53;;
6029;SDS011;3043;42.682;23.376;2023-04-01T16:26:52;9.07;;;4.90;;
6029;SDS011;3043;42.682;23.376;2023-04-01T16:29:32;7.90;;;4.53;;
6029;SDS011;3043;42.682;23.376;2023-04-01T16:32:22;8.30;;;5.27;;
6029;SDS011;3043;42.682;23.376;2023-04-01T16:35:00;9.03;;;5.53;;
6029;SDS011;3043;42.682;23.376;2023-04-01T16:38:01;8.23;;;5.00;;
6029;SDS011;3043;42.682;23.376;2023-04-01T16:43:45;8.67;;;4.87;;
6029;SDS011;3043;42.682;23.376;2023-04-01T16:57:20;7.63;;;4.50;;
6029;SDS011;3043;42.682;23.376;2023-04-01T17:02:45;7.43;;;4.03;;
6029;SDS011;3043;42.682;23.376;2023-04-01T17:05:16;6.20;;;3.70;;
6029;SDS011;3043;42.682;23.376;2023-04-01T17:08:06;6.10;;;3.50;;
6029;SDS011;3043;42.682;23.376;2023-04-01T17:21:12;5.40;;;3.13;;
6029;SDS011;3043;42.682;23.376;2023-04-01T17:23:51;5.67;;;3.20;;
6029;SDS011;3043;42.682;23.376;2023-04-01T17:26:37;5.97;;;3.07;;
6029;SDS011;3043;42.682;23.376;2023-04-01T17:29:32;5.60;;;3.37;;
6029;SDS011;3043;42.682;23.376;2023-04-01T18:01:54;6.47;;;3.87;;
6029;SDS011;3043;42.682;23.376;2023-04-01T18:04:42;7.00;;;4.07;;
6029;SDS011;3043;42.682;23.376;2023-04-01T18:07:30;7.83;;;4.17;;
6029;SDS011;3043;42.682;23.376;2023-04-01T18:12:51;6.20;;;4.03;;
6029;SDS011;3043;42.682;23.376;2023-04-01T18:24:11;6.60;;;3.90;;
6029;SDS011;3043;42.682;23.376;2023-04-01T18:26:43;6.97;;;4.30;;
6029;SDS011;3043;42.682;23.376;2023-04-01T18:29:19;6.73;;;4.10;;
6029;SDS011;3043;42.682;23.376;2023-04-01T18:31:50;5.80;;;4.07;;
6029;SDS011;3043;42.682;23.376;2023-04-01T18:40:19;6.43;;;4.17;;
6029;SDS011;3043;42.682;23.376;2023-04-01T18:43:02;5.30;;;3.67;;
6029;SDS011;3043;42.682;23.376;2023-04-01T18:54:19;6.13;;;4.27;;
6029;SDS011;3043;42.682;23.376;2023-04-01T18:56:51;6.90;;;4.17;;
6029;SDS011;3043;42.682;23.376;2023-04-01T18:59:44;6.40;;;4.07;;
6029;SDS011;3043;42.682;23.376;2023-04-01T19:04:47;5.97;;;3.77;;
6029;SDS011;3043;42.682;23.376;2023-04-01T19:09:49;6.60;;;4.17;;
6029;SDS011;3043;42.682;23.376;2023-04-01T19:17:48;7.93;;;4.20;;
6029;SDS011;3043;42.682;23.376;2023-04-01T19:20:46;7.87;;;3.87;;
6029;SDS011;3043;42.682;23.376;2023-04-01T19:26:03;8.37;;;5.23;;
6029;SDS011;3043;42.682;23.376;2023-04-01T19:31:28;5.60;;;3.40;;
6029;SDS011;3043;42.682;23.376;2023-04-01T19:34:16;5.10;;;3.40;;
6029;SDS011;3043;42.682;23.376;2023-04-01T19:37:05;5.90;;;3.57;;
6029;SDS011;3043;42.682;23.376;2023-04-01T19:39:47;5.67;;;2.97;;
6029;SDS011;3043;42.682;23.376;2023-04-01T19:47:48;6.20;;;3.10;;
6029;SDS011;3043;42.682;23.376;2023-04-01T19:50:37;4.83;;;3.07;;
6029;SDS011;3043;42.682;23.376;2023-04-01T19:53:23;4.50;;;2.80;;
6029;SDS011;3043;42.682;23.376;2023-04-01T19:58:25;3.70;;;2.33;;
6029;SDS011;3043;42.682;23.376;2023-04-01T20:00:57;5.67;;;2.67;;
6029;SDS011;3043;42.682;23.376;2023-04-01T20:08:25;3.57;;;2.50;;
6029;SDS011;3043;42.682;23.376;2023-04-01T20:11:19;3.87;;;2.30;;
6029;SDS011;3043;42.682;23.376;2023-04-01T20:16:50;3.53;;;2.30;;
6029;SDS011;3043;42.682;23.376;2023-04-01T20:19:38;3.97;;;2.40;;
6029;SDS011;3043;42.682;23.376;2023-04-01T20:22:16;5.07;;;2.80;;
6029;SDS011;3043;42.682;23.376;2023-04-01T20:24:59;4.47;;;2.80;;
6029;SDS011;3043;42.682;23.376;2023-04-01T20:27:36;4.33;;;2.50;;
6029;SDS011;3043;42.682;23.376;2023-04-01T20:46:59;6.60;;;3.03;;
6029;SDS011;3043;42.682;23.376;2023-04-01T20:57:38;5.43;;;2.70;;
6029;SDS011;3043;42.682;23.376;2023-04-01T21:00:16;6.13;;;3.00;;
6029;SDS011;3043;42.682;23.376;2023-04-01T21:28:02;5.20;;;2.53;;
6029;SDS011;3043;42.682;23.376;2023-04-01T21:38:14;5.10;;;2.60;;
6029;SDS011;3043;42.682;23.376;2023-04-01T22:07:47;4.03;;;2.07;;
6029;SDS011;3043;42.682;23.376;2023-04-01T22:18:39;4.73;;;2.50;;
6029;SDS011;3043;42.682;23.376;2023-04-01T22:29:41;6.40;;;2.43;;
6029;SDS011;3043;42.682;23.376;2023-04-01T22:32:32;6.27;;;2.73;;
6029;SDS011;3043;42.682;23.376;2023-04-01T22:40:35;4.67;;;2.57;;
6029;SDS011;3043;42.682;23.376;2023-04-01T22:43:27;6.20;;;2.50;;
6029;SDS011;3043;42.682;23.376;2023-04-01T22:46:23;4.43;;;2.43;;
6029;SDS011;3043;42.682;23.376;2023-04-01T22:59:39;6.20;;;2.10;;
6029;SDS011;3043;42.682;23.376;2023-04-01T23:04:42;4.67;;;2.17;;
6029;SDS011;3043;42.682;23.376;2023-04-01T23:07:19;6.13;;;2.40;;
6029;SDS011;3043;42.682;23.376;2023-04-01T23:10:32;3.10;;;1.90;;
6029;SDS011;3043;42.682;23.376;2023-04-01T23:13:12;5.60;;;2.10;;
6029;SDS011;3043;42.682;23.376;2023-04-01T23:15:44;4.80;;;2.27;;
6029;SDS011;3043;42.682;23.376;2023-04-01T23:18:22;3.37;;;2.10;;
6029;SDS011;3043;42.682;23.376;2023-04-01T23:29:04;3.67;;;1.83;;
6029;SDS011;3043;42.682;23.376;2023-04-01T23:31:41;3.90;;;1.67;;
6029;SDS011;3043;42.682;23.376;2023-04-01T23:36:58;3.70;;;1.80;;
6029;SDS011;3043;42.682;23.376;2023-04-01T23:39:26;3.30;;;1.70;;
6029;SDS011;3043;42.682;23.376;2023-04-01T23:41:53;1.90;;;1.50;;
6029;SDS011;3043;42.682;23.376;2023-04-01T23:44:21;3.13;;;1.70;;
6029;SDS011;3043;42.682;23.376;2023-04-01T23:46:49;2.73;;;1.80;;
6029;SDS011;3043;42.682;23.376;2023-04-01T23:49:24;5.53;;;2.10;;
6029;SDS011;3043;42.682;23.376;2023-04-01T23:52:06;4.70;;;2.03;;
6029;SDS011;3043;42.682;23.376;2023-04-01T23:57:14;3.23;;;1.90;;
6029;SDS011;3043;42.682;23.376;2023-04-01T23:59:43;3.77;;;1.73;;
